sensor_id;sensor_type;location;lat;lon;timestamp;P1;durP1;ratioP1;P2;durP2;ratioP2
13731;SDS011;6937;56.096;12.664;2022-07-29T00:01:27;4.05;;;1.40;;
13731;SDS011;6937;56.096;12.664;2022-07-29T00:03:52;3.05;;;1.55;;
13731;SDS011;6937;56.096;12.664;2022-07-29T00:06:17;1.95;;;1.23;;
13731;SDS011;6937;56.096;12.664;2022-07-29T00:08:43;1.55;;;1.15;;
13731;SDS011;6937;56.096;12.664;2022-07-29T00:11:08;2.55;;;1.15;;
13731;SDS011;6937;56.096;12.664;2022-07-29T00:13:34;2.72;;;1.27;;
13731;SDS011;6937;56.096;12.664;2022-07-29T00:15:59;1.52;;;1.00;;
13731;SDS011;6937;56.096;12.664;2022-07-29T00:18:25;2.70;;;1.00;;
13731;SDS011;6937;56.096;12.664;2022-07-29T00:20:50;2.00;;;1.08;;
13731;SDS011;6937;56.096;12.664;2022-07-29T00:23:15;2.13;;;1.23;;
13731;SDS011;6937;56.096;12.664;2022-07-29T00:25:41;2.38;;;1.05;;
13731;SDS011;6937;56.096;12.664;2022-07-29T00:28:06;2.30;;;1.25;;
13731;SDS011;6937;56.096;12.664;2022-07-29T00:30:31;2.30;;;0.95;;
13731;SDS011;6937;56.096;12.664;2022-07-29T00:32:57;1.58;;;1.00;;
13731;SDS011;6937;56.096;12.664;2022-07-29T00:35:22;2.33;;;1.15;;
13731;SDS011;6937;56.096;12.664;2022-07-29T00:38:06;1.67;;;1.10;;
13731;SDS011;6937;56.096;12.664;2022-07-29T00:40:31;1.65;;;1.00;;
13731;SDS011;6937;56.096;12.664;2022-07-29T00:42:57;1.08;;;0.90;;
13731;SDS011;6937;56.096;12.664;2022-07-29T00:45:22;2.60;;;0.95;;
13731;SDS011;6937;56.096;12.664;2022-07-29T00:47:47;2.03;;;1.17;;
13731;SDS011;6937;56.096;12.664;2022-07-29T00:50:13;3.03;;;1.27;;
13731;SDS011;6937;56.096;12.664;2022-07-29T00:52:40;1.55;;;1.15;;
13731;SDS011;6937;56.096;12.664;2022-07-29T00:55:08;3.10;;;1.05;;
13731;SDS011;6937;56.096;12.664;2022-07-29T00:57:36;2.00;;;1.13;;
13731;SDS011;6937;56.096;12.664;2022-07-29T01:00:03;1.58;;;0.90;;
13731;SDS011;6937;56.096;12.664;2022-07-29T01:02:29;2.08;;;0.93;;
13731;SDS011;6937;56.096;12.664;2022-07-29T01:04:54;2.53;;;1.30;;
13731;SDS011;6937;56.096;12.664;2022-07-29T01:07:22;3.22;;;1.40;;
13731;SDS011;6937;56.096;12.664;2022-07-29T01:09:48;2.17;;;1.08;;
13731;SDS011;6937;56.096;12.664;2022-07-29T01:12:15;1.67;;;1.17;;
13731;SDS011;6937;56.096;12.664;2022-07-29T01:14:42;1.88;;;1.08;;
13731;SDS011;6937;56.096;12.664;2022-07-29T01:17:21;1.33;;;1.00;;
13731;SDS011;6937;56.096;12.664;2022-07-29T01:20:02;1.95;;;1.13;;
13731;SDS011;6937;56.096;12.664;2022-07-29T01:22:31;2.28;;;0.80;;
13731;SDS011;6937;56.096;12.664;2022-07-29T01:25:12;2.78;;;1.17;;
13731;SDS011;6937;56.096;12.664;2022-07-29T01:30:25;1.55;;;1.00;;
13731;SDS011;6937;56.096;12.664;2022-07-29T01:32:56;2.17;;;1.00;;
13731;SDS011;6937;56.096;12.664;2022-07-29T01:35:26;2.15;;;1.20;;
13731;SDS011;6937;56.096;12.664;2022-07-29T01:40:43;2.20;;;1.10;;
13731;SDS011;6937;56.096;12.664;2022-07-29T01:43:16;2.15;;;1.00;;
13731;SDS011;6937;56.096;12.664;2022-07-29T01:45:46;2.40;;;1.13;;
13731;SDS011;6937;56.096;12.664;2022-07-29T01:51:05;2.15;;;1.10;;
13731;SDS011;6937;56.096;12.664;2022-07-29T01:53:42;2.35;;;1.42;;
13731;SDS011;6937;56.096;12.664;2022-07-29T01:56:13;1.52;;;0.90;;
13731;SDS011;6937;56.096;12.664;2022-07-29T01:58:40;4.18;;;1.20;;
13731;SDS011;6937;56.096;12.664;2022-07-29T02:01:08;3.47;;;1.20;;
13731;SDS011;6937;56.096;12.664;2022-07-29T02:03:36;3.60;;;1.23;;
13731;SDS011;6937;56.096;12.664;2022-07-29T02:06:03;3.03;;;1.02;;
13731;SDS011;6937;56.096;12.664;2022-07-29T02:08:30;3.65;;;1.40;;
13731;SDS011;6937;56.096;12.664;2022-07-29T02:10:58;4.05;;;1.40;;
13731;SDS011;6937;56.096;12.664;2022-07-29T02:13:25;3.85;;;1.13;;
13731;SDS011;6937;56.096;12.664;2022-07-29T02:15:54;2.22;;;1.00;;
13731;SDS011;6937;56.096;12.664;2022-07-29T02:18:22;4.10;;;1.20;;
13731;SDS011;6937;56.096;12.664;2022-07-29T02:20:50;3.33;;;1.10;;
13731;SDS011;6937;56.096;12.664;2022-07-29T02:23:19;3.75;;;1.30;;
13731;SDS011;6937;56.096;12.664;2022-07-29T02:25:48;2.08;;;1.10;;
13731;SDS011;6937;56.096;12.664;2022-07-29T02:28:14;3.03;;;1.35;;
13731;SDS011;6937;56.096;12.664;2022-07-29T02:30:42;3.55;;;1.10;;
13731;SDS011;6937;56.096;12.664;2022-07-29T02:33:10;1.63;;;1.10;;
13731;SDS011;6937;56.096;12.664;2022-07-29T02:35:39;2.03;;;1.10;;
13731;SDS011;6937;56.096;12.664;2022-07-29T02:38:06;3.53;;;1.15;;
13731;SDS011;6937;56.096;12.664;2022-07-29T02:40:52;1.20;;;0.90;;
13731;SDS011;6937;56.096;12.664;2022-07-29T02:43:20;1.98;;;1.38;;
13731;SDS011;6937;56.096;12.664;2022-07-29T02:45:47;1.60;;;1.10;;
13731;SDS011;6937;56.096;12.664;2022-07-29T02:48:16;1.73;;;1.17;;
13731;SDS011;6937;56.096;12.664;2022-07-29T02:50:48;2.22;;;1.10;;
13731;SDS011;6937;56.096;12.664;2022-07-29T02:53:20;2.42;;;1.02;;
13731;SDS011;6937;56.096;12.664;2022-07-29T02:55:51;3.60;;;1.42;;
13731;SDS011;6937;56.096;12.664;2022-07-29T02:58:25;1.95;;;1.00;;
13731;SDS011;6937;56.096;12.664;2022-07-29T03:00:58;2.10;;;0.90;;
13731;SDS011;6937;56.096;12.664;2022-07-29T03:03:37;3.28;;;1.45;;
13731;SDS011;6937;56.096;12.664;2022-07-29T03:06:03;2.08;;;1.08;;
13731;SDS011;6937;56.096;12.664;2022-07-29T03:08:30;1.92;;;1.10;;
13731;SDS011;6937;56.096;12.664;2022-07-29T03:10:57;2.83;;;1.20;;
13731;SDS011;6937;56.096;12.664;2022-07-29T03:13:24;1.70;;;0.90;;
13731;SDS011;6937;56.096;12.664;2022-07-29T03:15:50;1.67;;;1.05;;
13731;SDS011;6937;56.096;12.664;2022-07-29T03:18:16;1.88;;;0.90;;
13731;SDS011;6937;56.096;12.664;2022-07-29T03:20:42;2.00;;;1.05;;
13731;SDS011;6937;56.096;12.664;2022-07-29T03:23:07;2.63;;;1.10;;
13731;SDS011;6937;56.096;12.664;2022-07-29T03:25:34;1.92;;;1.10;;
13731;SDS011;6937;56.096;12.664;2022-07-29T03:27:59;3.35;;;1.42;;
13731;SDS011;6937;56.096;12.664;2022-07-29T03:30:25;1.55;;;1.15;;
13731;SDS011;6937;56.096;12.664;2022-07-29T03:32:50;1.10;;;0.95;;
13731;SDS011;6937;56.096;12.664;2022-07-29T03:35:16;1.85;;;1.10;;
13731;SDS011;6937;56.096;12.664;2022-07-29T03:37:42;2.13;;;0.85;;
13731;SDS011;6937;56.096;12.664;2022-07-29T03:40:11;4.07;;;1.08;;
13731;SDS011;6937;56.096;12.664;2022-07-29T03:42:42;3.30;;;1.13;;
13731;SDS011;6937;56.096;12.664;2022-07-29T03:45:09;1.88;;;1.15;;
13731;SDS011;6937;56.096;12.664;2022-07-29T03:47:39;1.50;;;0.98;;
13731;SDS011;6937;56.096;12.664;2022-07-29T03:50:10;2.30;;;1.00;;
13731;SDS011;6937;56.096;12.664;2022-07-29T03:52:38;2.13;;;1.13;;
13731;SDS011;6937;56.096;12.664;2022-07-29T03:55:04;1.77;;;1.05;;
13731;SDS011;6937;56.096;12.664;2022-07-29T03:57:30;3.35;;;1.58;;
13731;SDS011;6937;56.096;12.664;2022-07-29T03:59:57;2.30;;;0.90;;
13731;SDS011;6937;56.096;12.664;2022-07-29T04:02:23;1.50;;;1.10;;
13731;SDS011;6937;56.096;12.664;2022-07-29T04:04:50;2.05;;;1.00;;
13731;SDS011;6937;56.096;12.664;2022-07-29T04:07:16;1.70;;;0.98;;
13731;SDS011;6937;56.096;12.664;2022-07-29T04:09:42;2.50;;;1.10;;
13731;SDS011;6937;56.096;12.664;2022-07-29T04:12:07;1.50;;;1.08;;
13731;SDS011;6937;56.096;12.664;2022-07-29T04:14:33;1.75;;;1.13;;
13731;SDS011;6937;56.096;12.664;2022-07-29T04:17:03;1.90;;;1.35;;
13731;SDS011;6937;56.096;12.664;2022-07-29T04:19:29;1.10;;;0.88;;
13731;SDS011;6937;56.096;12.664;2022-07-29T04:21:55;1.38;;;0.98;;
13731;SDS011;6937;56.096;12.664;2022-07-29T04:24:21;3.55;;;1.30;;
13731;SDS011;6937;56.096;12.664;2022-07-29T04:26:46;1.90;;;1.00;;
13731;SDS011;6937;56.096;12.664;2022-07-29T04:29:12;3.25;;;1.27;;
13731;SDS011;6937;56.096;12.664;2022-07-29T04:31:39;2.10;;;1.20;;
13731;SDS011;6937;56.096;12.664;2022-07-29T04:34:05;2.33;;;1.00;;
13731;SDS011;6937;56.096;12.664;2022-07-29T04:36:31;1.73;;;1.23;;
13731;SDS011;6937;56.096;12.664;2022-07-29T04:38:56;2.75;;;1.30;;
13731;SDS011;6937;56.096;12.664;2022-07-29T04:41:21;1.98;;;1.10;;
13731;SDS011;6937;56.096;12.664;2022-07-29T04:43:47;3.67;;;1.23;;
13731;SDS011;6937;56.096;12.664;2022-07-29T04:46:12;2.15;;;1.27;;
13731;SDS011;6937;56.096;12.664;2022-07-29T04:48:38;1.50;;;1.40;;
13731;SDS011;6937;56.096;12.664;2022-07-29T04:51:03;2.50;;;1.30;;
13731;SDS011;6937;56.096;12.664;2022-07-29T04:53:28;3.10;;;1.30;;
13731;SDS011;6937;56.096;12.664;2022-07-29T04:55:54;2.80;;;1.63;;
13731;SDS011;6937;56.096;12.664;2022-07-29T04:58:19;2.55;;;1.40;;
13731;SDS011;6937;56.096;12.664;2022-07-29T05:00:45;2.67;;;1.70;;
13731;SDS011;6937;56.096;12.664;2022-07-29T05:03:10;3.13;;;1.50;;
13731;SDS011;6937;56.096;12.664;2022-07-29T05:05:35;3.95;;;1.60;;
13731;SDS011;6937;56.096;12.664;2022-07-29T05:08:01;4.70;;;1.77;;
13731;SDS011;6937;56.096;12.664;2022-07-29T05:10:26;3.35;;;1.27;;
13731;SDS011;6937;56.096;12.664;2022-07-29T05:12:52;3.30;;;1.70;;
13731;SDS011;6937;56.096;12.664;2022-07-29T05:15:17;3.90;;;1.45;;
13731;SDS011;6937;56.096;12.664;2022-07-29T05:17:43;3.83;;;2.00;;
13731;SDS011;6937;56.096;12.664;2022-07-29T05:20:09;3.63;;;1.70;;
13731;SDS011;6937;56.096;12.664;2022-07-29T05:22:35;2.67;;;1.70;;
13731;SDS011;6937;56.096;12.664;2022-07-29T05:25:00;3.60;;;1.70;;
13731;SDS011;6937;56.096;12.664;2022-07-29T05:27:26;6.32;;;1.63;;
13731;SDS011;6937;56.096;12.664;2022-07-29T05:29:51;1.83;;;1.35;;
13731;SDS011;6937;56.096;12.664;2022-07-29T05:32:16;2.42;;;1.20;;
13731;SDS011;6937;56.096;12.664;2022-07-29T05:34:42;2.17;;;1.60;;
13731;SDS011;6937;56.096;12.664;2022-07-29T05:37:07;3.10;;;1.50;;
13731;SDS011;6937;56.096;12.664;2022-07-29T05:39:32;4.90;;;1.35;;
13731;SDS011;6937;56.096;12.664;2022-07-29T05:41:58;4.47;;;1.70;;
13731;SDS011;6937;56.096;12.664;2022-07-29T05:44:23;2.25;;;1.58;;
13731;SDS011;6937;56.096;12.664;2022-07-29T05:46:48;6.00;;;2.40;;
13731;SDS011;6937;56.096;12.664;2022-07-29T05:49:14;3.38;;;1.60;;
13731;SDS011;6937;56.096;12.664;2022-07-29T05:51:39;2.97;;;1.50;;
13731;SDS011;6937;56.096;12.664;2022-07-29T05:54:05;2.85;;;1.63;;
13731;SDS011;6937;56.096;12.664;2022-07-29T05:56:31;4.82;;;1.55;;
13731;SDS011;6937;56.096;12.664;2022-07-29T05:58:56;3.95;;;1.60;;
13731;SDS011;6937;56.096;12.664;2022-07-29T06:01:21;3.95;;;1.55;;
13731;SDS011;6937;56.096;12.664;2022-07-29T06:03:47;5.13;;;1.15;;
13731;SDS011;6937;56.096;12.664;2022-07-29T06:06:12;3.53;;;1.15;;
13731;SDS011;6937;56.096;12.664;2022-07-29T06:08:37;2.17;;;1.17;;
13731;SDS011;6937;56.096;12.664;2022-07-29T06:11:03;3.22;;;1.65;;
13731;SDS011;6937;56.096;12.664;2022-07-29T06:13:30;1.83;;;1.17;;
13731;SDS011;6937;56.096;12.664;2022-07-29T06:15:55;1.98;;;1.17;;
13731;SDS011;6937;56.096;12.664;2022-07-29T06:18:21;3.08;;;1.10;;
13731;SDS011;6937;56.096;12.664;2022-07-29T06:20:49;2.83;;;1.10;;
13731;SDS011;6937;56.096;12.664;2022-07-29T06:23:15;4.53;;;1.30;;
13731;SDS011;6937;56.096;12.664;2022-07-29T06:25:41;3.90;;;1.58;;
13731;SDS011;6937;56.096;12.664;2022-07-29T06:28:06;3.53;;;1.25;;
13731;SDS011;6937;56.096;12.664;2022-07-29T06:30:32;1.52;;;1.00;;
13731;SDS011;6937;56.096;12.664;2022-07-29T06:32:57;3.22;;;1.27;;
13731;SDS011;6937;56.096;12.664;2022-07-29T06:35:23;3.30;;;1.20;;
13731;SDS011;6937;56.096;12.664;2022-07-29T06:37:48;1.83;;;1.30;;
13731;SDS011;6937;56.096;12.664;2022-07-29T06:40:14;4.07;;;1.33;;
13731;SDS011;6937;56.096;12.664;2022-07-29T06:42:57;3.53;;;1.20;;
13731;SDS011;6937;56.096;12.664;2022-07-29T06:45:23;6.10;;;1.73;;
13731;SDS011;6937;56.096;12.664;2022-07-29T06:47:49;4.15;;;1.30;;
13731;SDS011;6937;56.096;12.664;2022-07-29T06:50:15;3.90;;;1.30;;
13731;SDS011;6937;56.096;12.664;2022-07-29T06:52:40;3.53;;;1.55;;
13731;SDS011;6937;56.096;12.664;2022-07-29T06:55:06;7.80;;;2.45;;
13731;SDS011;6937;56.096;12.664;2022-07-29T06:57:32;4.43;;;1.60;;
13731;SDS011;6937;56.096;12.664;2022-07-29T06:59:57;4.22;;;1.80;;
13731;SDS011;6937;56.096;12.664;2022-07-29T07:02:22;3.47;;;1.63;;
13731;SDS011;6937;56.096;12.664;2022-07-29T07:04:48;6.05;;;2.17;;
13731;SDS011;6937;56.096;12.664;2022-07-29T07:07:14;4.78;;;1.92;;
13731;SDS011;6937;56.096;12.664;2022-07-29T07:09:39;4.63;;;1.75;;
13731;SDS011;6937;56.096;12.664;2022-07-29T07:12:04;4.18;;;1.65;;
13731;SDS011;6937;56.096;12.664;2022-07-29T07:14:30;4.35;;;1.70;;
13731;SDS011;6937;56.096;12.664;2022-07-29T07:16:56;3.55;;;1.70;;
13731;SDS011;6937;56.096;12.664;2022-07-29T07:19:22;4.38;;;1.60;;
13731;SDS011;6937;56.096;12.664;2022-07-29T07:21:47;6.05;;;1.80;;
13731;SDS011;6937;56.096;12.664;2022-07-29T07:24:13;4.40;;;1.58;;
13731;SDS011;6937;56.096;12.664;2022-07-29T07:26:38;5.43;;;1.98;;
13731;SDS011;6937;56.096;12.664;2022-07-29T07:29:04;4.30;;;1.95;;
13731;SDS011;6937;56.096;12.664;2022-07-29T07:31:30;4.75;;;2.03;;
13731;SDS011;6937;56.096;12.664;2022-07-29T07:33:56;4.85;;;2.00;;
13731;SDS011;6937;56.096;12.664;2022-07-29T07:36:21;4.90;;;1.80;;
13731;SDS011;6937;56.096;12.664;2022-07-29T07:38:47;4.35;;;2.10;;
13731;SDS011;6937;56.096;12.664;2022-07-29T07:41:12;4.18;;;2.17;;
13731;SDS011;6937;56.096;12.664;2022-07-29T07:43:38;5.82;;;2.03;;
13731;SDS011;6937;56.096;12.664;2022-07-29T07:46:03;5.90;;;2.15;;
13731;SDS011;6937;56.096;12.664;2022-07-29T07:48:29;3.65;;;2.10;;
13731;SDS011;6937;56.096;12.664;2022-07-29T07:50:55;5.00;;;1.92;;
13731;SDS011;6937;56.096;12.664;2022-07-29T07:53:20;4.07;;;2.08;;
13731;SDS011;6937;56.096;12.664;2022-07-29T07:55:46;4.28;;;2.55;;
13731;SDS011;6937;56.096;12.664;2022-07-29T07:58:11;3.63;;;1.85;;
13731;SDS011;6937;56.096;12.664;2022-07-29T08:00:36;4.20;;;2.00;;
13731;SDS011;6937;56.096;12.664;2022-07-29T08:03:02;4.43;;;2.17;;
13731;SDS011;6937;56.096;12.664;2022-07-29T08:05:28;3.70;;;1.83;;
13731;SDS011;6937;56.096;12.664;2022-07-29T08:07:53;5.13;;;1.98;;
13731;SDS011;6937;56.096;12.664;2022-07-29T08:10:19;3.08;;;1.92;;
13731;SDS011;6937;56.096;12.664;2022-07-29T08:13:06;5.03;;;2.03;;
13731;SDS011;6937;56.096;12.664;2022-07-29T08:15:34;4.57;;;2.30;;
13731;SDS011;6937;56.096;12.664;2022-07-29T08:18:00;4.00;;;1.75;;
13731;SDS011;6937;56.096;12.664;2022-07-29T08:20:26;4.38;;;1.73;;
13731;SDS011;6937;56.096;12.664;2022-07-29T08:22:51;6.43;;;2.10;;
13731;SDS011;6937;56.096;12.664;2022-07-29T08:25:18;5.03;;;1.77;;
13731;SDS011;6937;56.096;12.664;2022-07-29T08:27:45;3.25;;;1.75;;
13731;SDS011;6937;56.096;12.664;2022-07-29T08:30:11;3.53;;;1.92;;
13731;SDS011;6937;56.096;12.664;2022-07-29T08:32:37;3.28;;;1.77;;
13731;SDS011;6937;56.096;12.664;2022-07-29T08:35:02;2.28;;;1.60;;
13731;SDS011;6937;56.096;12.664;2022-07-29T08:37:28;3.63;;;1.83;;
13731;SDS011;6937;56.096;12.664;2022-07-29T08:39:53;2.65;;;1.30;;
13731;SDS011;6937;56.096;12.664;2022-07-29T08:42:18;3.53;;;1.20;;
13731;SDS011;6937;56.096;12.664;2022-07-29T08:44:44;4.30;;;1.48;;
13731;SDS011;6937;56.096;12.664;2022-07-29T08:47:10;3.72;;;1.60;;
13731;SDS011;6937;56.096;12.664;2022-07-29T08:49:38;4.22;;;1.95;;
13731;SDS011;6937;56.096;12.664;2022-07-29T08:52:04;5.05;;;2.00;;
13731;SDS011;6937;56.096;12.664;2022-07-29T08:54:30;3.00;;;2.00;;
13731;SDS011;6937;56.096;12.664;2022-07-29T08:56:55;4.05;;;1.98;;
13731;SDS011;6937;56.096;12.664;2022-07-29T08:59:22;3.22;;;1.85;;
13731;SDS011;6937;56.096;12.664;2022-07-29T09:01:52;5.65;;;2.42;;
13731;SDS011;6937;56.096;12.664;2022-07-29T09:04:19;4.32;;;1.98;;
13731;SDS011;6937;56.096;12.664;2022-07-29T09:06:46;2.92;;;1.50;;
13731;SDS011;6937;56.096;12.664;2022-07-29T09:09:16;4.45;;;1.77;;
13731;SDS011;6937;56.096;12.664;2022-07-29T09:11:42;3.53;;;1.70;;
13731;SDS011;6937;56.096;12.664;2022-07-29T09:14:08;4.60;;;1.60;;
13731;SDS011;6937;56.096;12.664;2022-07-29T09:16:47;6.90;;;2.10;;
13731;SDS011;6937;56.096;12.664;2022-07-29T09:19:30;3.10;;;1.42;;
13731;SDS011;6937;56.096;12.664;2022-07-29T09:21:59;5.57;;;2.00;;
13731;SDS011;6937;56.096;12.664;2022-07-29T09:24:27;2.88;;;1.50;;
13731;SDS011;6937;56.096;12.664;2022-07-29T09:27:08;5.53;;;1.85;;
13731;SDS011;6937;56.096;12.664;2022-07-29T09:29:43;4.80;;;1.85;;
13731;SDS011;6937;56.096;12.664;2022-07-29T09:32:09;3.85;;;1.40;;
13731;SDS011;6937;56.096;12.664;2022-07-29T09:34:35;3.92;;;1.40;;
13731;SDS011;6937;56.096;12.664;2022-07-29T09:37:01;6.22;;;2.13;;
13731;SDS011;6937;56.096;12.664;2022-07-29T09:39:31;4.85;;;1.92;;
13731;SDS011;6937;56.096;12.664;2022-07-29T09:42:02;4.40;;;1.73;;
13731;SDS011;6937;56.096;12.664;2022-07-29T09:44:46;4.13;;;1.73;;
13731;SDS011;6937;56.096;12.664;2022-07-29T09:47:13;6.53;;;1.80;;
13731;SDS011;6937;56.096;12.664;2022-07-29T09:49:53;5.03;;;1.85;;
13731;SDS011;6937;56.096;12.664;2022-07-29T09:52:22;2.97;;;1.70;;
13731;SDS011;6937;56.096;12.664;2022-07-29T09:54:48;5.90;;;2.00;;
13731;SDS011;6937;56.096;12.664;2022-07-29T09:57:27;3.50;;;1.83;;
13731;SDS011;6937;56.096;12.664;2022-07-29T09:59:57;5.05;;;1.90;;
13731;SDS011;6937;56.096;12.664;2022-07-29T10:02:27;3.38;;;1.90;;
13731;SDS011;6937;56.096;12.664;2022-07-29T10:04:54;5.03;;;2.28;;
13731;SDS011;6937;56.096;12.664;2022-07-29T10:07:20;6.13;;;2.50;;
13731;SDS011;6937;56.096;12.664;2022-07-29T10:09:52;6.03;;;2.95;;
13731;SDS011;6937;56.096;12.664;2022-07-29T10:12:19;4.88;;;2.30;;
13731;SDS011;6937;56.096;12.664;2022-07-29T10:14:44;5.30;;;2.20;;
13731;SDS011;6937;56.096;12.664;2022-07-29T10:17:11;5.68;;;2.70;;
13731;SDS011;6937;56.096;12.664;2022-07-29T10:19:37;4.32;;;2.20;;
13731;SDS011;6937;56.096;12.664;2022-07-29T10:22:05;4.28;;;2.42;;
13731;SDS011;6937;56.096;12.664;2022-07-29T10:24:32;6.63;;;3.20;;
13731;SDS011;6937;56.096;12.664;2022-07-29T10:26:59;5.28;;;2.50;;
13731;SDS011;6937;56.096;12.664;2022-07-29T10:29:25;4.10;;;2.17;;
13731;SDS011;6937;56.096;12.664;2022-07-29T10:37:03;5.30;;;2.40;;
13731;SDS011;6937;56.096;12.664;2022-07-29T10:42:25;3.75;;;1.98;;
13731;SDS011;6937;56.096;12.664;2022-07-29T10:44:54;4.95;;;2.15;;
13731;SDS011;6937;56.096;12.664;2022-07-29T10:47:21;4.05;;;2.13;;
13731;SDS011;6937;56.096;12.664;2022-07-29T10:50:01;7.82;;;2.50;;
13731;SDS011;6937;56.096;12.664;2022-07-29T10:55:36;5.40;;;2.30;;
13731;SDS011;6937;56.096;12.664;2022-07-29T10:58:12;5.13;;;2.35;;
13731;SDS011;6937;56.096;12.664;2022-07-29T11:00:43;5.57;;;2.42;;
13731;SDS011;6937;56.096;12.664;2022-07-29T11:03:09;4.07;;;2.10;;
13731;SDS011;6937;56.096;12.664;2022-07-29T11:05:55;5.50;;;2.50;;
13731;SDS011;6937;56.096;12.664;2022-07-29T11:08:21;3.10;;;2.10;;
13731;SDS011;6937;56.096;12.664;2022-07-29T11:10:51;3.17;;;2.05;;
13731;SDS011;6937;56.096;12.664;2022-07-29T11:13:52;4.63;;;2.55;;
13731;SDS011;6937;56.096;12.664;2022-07-29T11:16:15;4.05;;;2.30;;
13731;SDS011;6937;56.096;12.664;2022-07-29T11:19:23;6.95;;;3.25;;
13731;SDS011;6937;56.096;12.664;2022-07-29T11:21:36;4.88;;;2.20;;
13731;SDS011;6937;56.096;12.664;2022-07-29T11:24:15;4.03;;;2.20;;
13731;SDS011;6937;56.096;12.664;2022-07-29T11:26:43;3.28;;;2.20;;
13731;SDS011;6937;56.096;12.664;2022-07-29T11:29:19;4.68;;;2.25;;
13731;SDS011;6937;56.096;12.664;2022-07-29T11:31:47;3.67;;;2.03;;
13731;SDS011;6937;56.096;12.664;2022-07-29T11:34:32;5.15;;;2.10;;
13731;SDS011;6937;56.096;12.664;2022-07-29T11:39:39;4.68;;;2.25;;
13731;SDS011;6937;56.096;12.664;2022-07-29T11:42:41;4.28;;;2.17;;
13731;SDS011;6937;56.096;12.664;2022-07-29T11:47:50;2.83;;;2.13;;
13731;SDS011;6937;56.096;12.664;2022-07-29T11:50:34;4.75;;;2.25;;
13731;SDS011;6937;56.096;12.664;2022-07-29T11:53:02;3.47;;;2.28;;
13731;SDS011;6937;56.096;12.664;2022-07-29T11:55:34;4.40;;;2.22;;
13731;SDS011;6937;56.096;12.664;2022-07-29T11:58:02;4.03;;;2.00;;
13731;SDS011;6937;56.096;12.664;2022-07-29T12:03:00;4.05;;;1.90;;
13731;SDS011;6937;56.096;12.664;2022-07-29T12:08:09;6.90;;;1.65;;
13731;SDS011;6937;56.096;12.664;2022-07-29T12:10:37;5.30;;;1.90;;
13731;SDS011;6937;56.096;12.664;2022-07-29T12:13:03;2.65;;;1.52;;
13731;SDS011;6937;56.096;12.664;2022-07-29T12:15:29;3.28;;;1.48;;
13731;SDS011;6937;56.096;12.664;2022-07-29T12:17:55;4.70;;;1.60;;
13731;SDS011;6937;56.096;12.664;2022-07-29T12:20:25;3.70;;;1.65;;
13731;SDS011;6937;56.096;12.664;2022-07-29T12:22:52;3.78;;;1.60;;
13731;SDS011;6937;56.096;12.664;2022-07-29T12:25:19;4.00;;;1.65;;
13731;SDS011;6937;56.096;12.664;2022-07-29T12:27:45;6.75;;;1.50;;
13731;SDS011;6937;56.096;12.664;2022-07-29T12:30:11;3.58;;;1.60;;
13731;SDS011;6937;56.096;12.664;2022-07-29T12:32:40;3.45;;;1.50;;
13731;SDS011;6937;56.096;12.664;2022-07-29T12:35:15;2.72;;;1.50;;
13731;SDS011;6937;56.096;12.664;2022-07-29T12:37:46;2.67;;;1.30;;
13731;SDS011;6937;56.096;12.664;2022-07-29T12:40:13;2.17;;;1.20;;
13731;SDS011;6937;56.096;12.664;2022-07-29T12:42:41;3.03;;;1.25;;
13731;SDS011;6937;56.096;12.664;2022-07-29T12:45:07;2.83;;;1.27;;
13731;SDS011;6937;56.096;12.664;2022-07-29T12:47:33;3.28;;;1.17;;
13731;SDS011;6937;56.096;12.664;2022-07-29T12:50:11;2.05;;;1.10;;
13731;SDS011;6937;56.096;12.664;2022-07-29T12:52:42;3.92;;;1.25;;
13731;SDS011;6937;56.096;12.664;2022-07-29T12:55:09;3.10;;;1.20;;
13731;SDS011;6937;56.096;12.664;2022-07-29T12:57:44;5.43;;;1.45;;
13731;SDS011;6937;56.096;12.664;2022-07-29T13:00:12;2.08;;;1.17;;
13731;SDS011;6937;56.096;12.664;2022-07-29T13:02:39;2.10;;;1.13;;
13731;SDS011;6937;56.096;12.664;2022-07-29T13:05:06;3.25;;;1.50;;
13731;SDS011;6937;56.096;12.664;2022-07-29T13:07:33;6.20;;;1.80;;
13731;SDS011;6937;56.096;12.664;2022-07-29T13:10:15;3.58;;;1.50;;
13731;SDS011;6937;56.096;12.664;2022-07-29T13:13:02;3.45;;;1.25;;
13731;SDS011;6937;56.096;12.664;2022-07-29T13:15:32;3.42;;;1.30;;
13731;SDS011;6937;56.096;12.664;2022-07-29T13:17:57;2.55;;;1.30;;
13731;SDS011;6937;56.096;12.664;2022-07-29T13:20:24;4.72;;;1.67;;
13731;SDS011;6937;56.096;12.664;2022-07-29T13:22:54;3.78;;;1.20;;
13731;SDS011;6937;56.096;12.664;2022-07-29T13:25:24;2.40;;;1.40;;
13731;SDS011;6937;56.096;12.664;2022-07-29T13:27:50;2.47;;;0.95;;
13731;SDS011;6937;56.096;12.664;2022-07-29T13:30:15;2.10;;;1.17;;
13731;SDS011;6937;56.096;12.664;2022-07-29T13:32:41;2.45;;;1.10;;
13731;SDS011;6937;56.096;12.664;2022-07-29T13:35:07;2.60;;;1.10;;
13731;SDS011;6937;56.096;12.664;2022-07-29T13:37:33;2.08;;;1.20;;
13731;SDS011;6937;56.096;12.664;2022-07-29T13:40:03;3.42;;;1.10;;
13731;SDS011;6937;56.096;12.664;2022-07-29T13:42:30;3.08;;;1.20;;
13731;SDS011;6937;56.096;12.664;2022-07-29T13:44:56;2.83;;;1.10;;
13731;SDS011;6937;56.096;12.664;2022-07-29T13:47:22;2.88;;;1.25;;
13731;SDS011;6937;56.096;12.664;2022-07-29T13:49:48;5.78;;;1.42;;
13731;SDS011;6937;56.096;12.664;2022-07-29T13:52:13;2.08;;;1.08;;
13731;SDS011;6937;56.096;12.664;2022-07-29T13:54:39;1.40;;;0.90;;
13731;SDS011;6937;56.096;12.664;2022-07-29T13:57:05;4.22;;;1.10;;
13731;SDS011;6937;56.096;12.664;2022-07-29T13:59:30;3.75;;;1.45;;
13731;SDS011;6937;56.096;12.664;2022-07-29T14:01:56;3.28;;;1.10;;
13731;SDS011;6937;56.096;12.664;2022-07-29T14:04:21;5.30;;;1.30;;
13731;SDS011;6937;56.096;12.664;2022-07-29T14:06:48;2.75;;;1.25;;
13731;SDS011;6937;56.096;12.664;2022-07-29T14:09:14;2.40;;;1.20;;
13731;SDS011;6937;56.096;12.664;2022-07-29T14:11:40;5.13;;;1.30;;
13731;SDS011;6937;56.096;12.664;2022-07-29T14:14:05;4.57;;;1.25;;
13731;SDS011;6937;56.096;12.664;2022-07-29T14:16:31;2.95;;;1.20;;
13731;SDS011;6937;56.096;12.664;2022-07-29T14:18:56;3.05;;;1.55;;
13731;SDS011;6937;56.096;12.664;2022-07-29T14:21:21;4.18;;;1.38;;
13731;SDS011;6937;56.096;12.664;2022-07-29T14:23:47;3.78;;;1.30;;
13731;SDS011;6937;56.096;12.664;2022-07-29T14:26:13;3.80;;;1.15;;
13731;SDS011;6937;56.096;12.664;2022-07-29T14:28:38;2.13;;;1.10;;
13731;SDS011;6937;56.096;12.664;2022-07-29T14:31:04;1.58;;;1.23;;
13731;SDS011;6937;56.096;12.664;2022-07-29T14:33:29;2.17;;;1.20;;
13731;SDS011;6937;56.096;12.664;2022-07-29T14:35:55;2.60;;;1.00;;
13731;SDS011;6937;56.096;12.664;2022-07-29T14:38:20;2.03;;;0.98;;
13731;SDS011;6937;56.096;12.664;2022-07-29T14:40:45;2.83;;;1.23;;
13731;SDS011;6937;56.096;12.664;2022-07-29T14:43:12;1.80;;;1.10;;
13731;SDS011;6937;56.096;12.664;2022-07-29T14:45:38;2.08;;;1.17;;
13731;SDS011;6937;56.096;12.664;2022-07-29T14:48:04;3.40;;;1.20;;
13731;SDS011;6937;56.096;12.664;2022-07-29T14:50:30;2.58;;;1.05;;
13731;SDS011;6937;56.096;12.664;2022-07-29T14:52:56;1.85;;;1.30;;
13731;SDS011;6937;56.096;12.664;2022-07-29T14:55:25;2.72;;;1.33;;
13731;SDS011;6937;56.096;12.664;2022-07-29T14:57:51;2.05;;;1.20;;
13731;SDS011;6937;56.096;12.664;2022-07-29T15:00:17;1.02;;;0.90;;
13731;SDS011;6937;56.096;12.664;2022-07-29T15:02:43;3.25;;;1.30;;
13731;SDS011;6937;56.096;12.664;2022-07-29T15:05:08;1.80;;;1.10;;
13731;SDS011;6937;56.096;12.664;2022-07-29T15:07:34;2.58;;;1.20;;
13731;SDS011;6937;56.096;12.664;2022-07-29T15:09:59;3.67;;;1.20;;
13731;SDS011;6937;56.096;12.664;2022-07-29T15:12:24;1.33;;;1.10;;
13731;SDS011;6937;56.096;12.664;2022-07-29T15:14:50;2.75;;;1.00;;
13731;SDS011;6937;56.096;12.664;2022-07-29T15:17:15;2.25;;;1.30;;
13731;SDS011;6937;56.096;12.664;2022-07-29T15:19:41;1.73;;;1.10;;
13731;SDS011;6937;56.096;12.664;2022-07-29T15:22:06;3.88;;;1.35;;